createdAt,value
2018-04-22T00:00:09.192Z,9.17
2018-04-22T00:02:37.968Z,7.33
2018-04-22T00:05:06.523Z,13.10
2018-04-22T00:07:35.437Z,9.40
2018-04-22T00:10:03.563Z,10.27
2018-04-22T00:12:31.733Z,10.07
2018-04-22T00:15:00.011Z,12.00
2018-04-22T00:17:28.427Z,8.97
2018-04-22T00:19:56.747Z,8.50
2018-04-22T00:22:24.978Z,11.23
2018-04-22T00:25:06.938Z,9.17
2018-04-22T00:27:34.990Z,10.30
2018-04-22T00:30:03.085Z,8.90
2018-04-22T00:32:34.061Z,10.20
2018-04-22T00:37:53.180Z,9.97
2018-04-22T00:40:21.221Z,9.43
2018-04-22T00:42:50.037Z,9.43
2018-04-22T00:45:18.096Z,10.33
2018-04-22T00:47:46.149Z,8.87
2018-04-22T00:50:14.977Z,11.53
2018-04-22T00:52:43.016Z,9.60
2018-04-22T00:55:11.847Z,12.50
2018-04-22T00:57:39.906Z,9.43
2018-04-22T01:00:07.954Z,9.03
2018-04-22T01:02:36.772Z,9.90
2018-04-22T01:05:04.828Z,8.87
2018-04-22T01:07:32.888Z,10.67
2018-04-22T01:10:00.936Z,8.07
2018-04-22T01:12:29.010Z,11.10
2018-04-22T01:14:57.090Z,10.07
2018-04-22T01:17:25.917Z,10.90
2018-04-22T01:19:53.970Z,12.87
2018-04-22T01:22:22.042Z,10.70
2018-04-22T01:24:50.117Z,11.53
2018-04-22T01:27:18.994Z,14.60
2018-04-22T01:29:46.989Z,11.23
2018-04-22T01:32:18.614Z,9.97
2018-04-22T01:34:47.437Z,11.07
2018-04-22T01:37:15.480Z,11.30
2018-04-22T01:39:43.550Z,11.03
2018-04-22T01:42:11.604Z,11.30
2018-04-22T01:44:40.433Z,11.67
2018-04-22T01:47:08.498Z,10.23
2018-04-22T01:49:36.555Z,8.47
2018-04-22T01:52:04.618Z,13.10
2018-04-22T01:54:34.194Z,8.10
2018-04-22T01:57:02.249Z,8.70
2018-04-22T01:59:30.292Z,9.50
2018-04-22T02:01:58.350Z,10.03
2018-04-22T02:04:26.423Z,10.47
2018-04-22T02:06:54.495Z,9.67
2018-04-22T02:09:22.567Z,11.83
2018-04-22T02:11:50.642Z,9.53
2018-04-22T02:14:18.668Z,14.53
2018-04-22T02:16:47.499Z,9.97
2018-04-22T02:19:15.590Z,9.87
2018-04-22T02:21:43.648Z,10.17
2018-04-22T02:24:11.710Z,9.53
2018-04-22T02:26:39.780Z,13.07
2018-04-22T02:29:07.824Z,11.97
2018-04-22T02:31:35.879Z,12.27
2018-04-22T02:34:03.929Z,10.23
2018-04-22T02:36:31.997Z,15.00
2018-04-22T02:39:00.041Z,11.47
2018-04-22T02:41:29.175Z,10.07
2018-04-22T02:43:57.233Z,9.53
2018-04-22T02:46:25.618Z,11.77
2018-04-22T02:48:53.691Z,16.70
2018-04-22T02:51:21.762Z,14.00
2018-04-22T02:53:49.821Z,12.87
2018-04-22T02:56:20.146Z,15.40
2018-04-22T02:58:48.202Z,13.87
2018-04-22T03:07:16.064Z,14.17
2018-04-22T03:09:44.125Z,17.07
2018-04-22T03:12:12.193Z,12.13
2018-04-22T03:14:40.257Z,19.07
2018-04-22T03:17:08.328Z,15.37
2018-04-22T03:19:36.401Z,13.50
2018-04-22T03:22:04.473Z,18.10
2018-04-22T03:24:32.544Z,13.27
2018-04-22T03:27:00.685Z,12.53
2018-04-22T03:29:29.505Z,13.67
2018-04-22T03:31:57.572Z,12.27
2018-04-22T03:34:25.642Z,14.13
2018-04-22T03:36:53.713Z,12.50
2018-04-22T03:39:21.782Z,15.27
2018-04-22T03:41:49.843Z,13.60
2018-04-22T03:44:17.913Z,15.07
2018-04-22T03:46:45.981Z,14.60
2018-04-22T03:49:14.038Z,14.33
2018-04-22T03:51:43.682Z,14.10
2018-04-22T03:54:11.753Z,13.90
2018-04-22T03:56:40.573Z,16.60
2018-04-22T03:59:08.666Z,13.63
2018-04-22T04:01:37.672Z,13.97
2018-04-22T04:04:05.736Z,11.80
2018-04-22T04:06:33.794Z,11.90
2018-04-22T04:09:01.869Z,12.23
2018-04-22T04:11:29.930Z,18.00
2018-04-22T04:13:57.998Z,12.83
2018-04-22T04:16:27.472Z,15.60
2018-04-22T04:19:07.477Z,11.57
2018-04-22T04:21:48.119Z,12.90
2018-04-22T04:27:41.588Z,13.13
2018-04-22T04:30:09.798Z,14.13
2018-04-22T04:32:37.943Z,13.10
2018-04-22T04:35:06.097Z,14.63
2018-04-22T04:37:34.239Z,13.50
2018-04-22T04:40:03.141Z,13.40
2018-04-22T04:42:32.039Z,12.87
2018-04-22T04:45:00.169Z,13.47
2018-04-22T04:47:28.341Z,14.90
2018-04-22T04:49:56.685Z,13.97
2018-04-22T04:52:25.027Z,16.50
2018-04-22T04:54:53.324Z,17.97
2018-04-22T04:59:55.914Z,14.87
2018-04-22T05:02:25.049Z,12.20
2018-04-22T05:04:53.456Z,14.77
2018-04-22T05:07:22.248Z,15.80
2018-04-22T05:09:50.476Z,17.83
2018-04-22T05:12:18.643Z,20.87
2018-04-22T05:14:47.592Z,13.33
2018-04-22T05:17:15.786Z,16.63
2018-04-22T05:19:45.168Z,12.53
2018-04-22T05:22:13.523Z,17.73
2018-04-22T05:24:41.714Z,14.97
2018-04-22T05:27:09.860Z,15.13
2018-04-22T05:29:38.191Z,13.67
2018-04-22T05:32:06.331Z,15.00
2018-04-22T05:34:34.529Z,13.30
2018-04-22T05:37:02.792Z,14.57
2018-04-22T05:39:31.078Z,13.23
2018-04-22T05:41:59.262Z,13.93
2018-04-22T05:44:27.429Z,12.63
2018-04-22T05:46:55.697Z,15.10
2018-04-22T05:49:23.823Z,12.27
2018-04-22T05:51:52.021Z,11.80
2018-04-22T05:54:20.967Z,15.33
2018-04-22T05:56:49.287Z,13.53
2018-04-22T05:59:18.346Z,13.70
2018-04-22T06:01:46.541Z,14.27
2018-04-22T06:04:15.861Z,13.63
2018-04-22T06:06:44.747Z,14.67
2018-04-22T06:09:12.884Z,16.50
2018-04-22T06:11:41.208Z,15.07
2018-04-22T06:14:09.389Z,14.17
2018-04-22T06:16:37.576Z,16.37
2018-04-22T06:19:05.739Z,14.10
2018-04-22T06:21:33.927Z,15.57
2018-04-22T06:24:02.068Z,16.70
2018-04-22T06:26:30.250Z,16.17
2018-04-22T06:28:58.411Z,13.23
2018-04-22T06:31:26.938Z,13.47
2018-04-22T06:33:55.128Z,15.87
2018-04-22T06:36:25.043Z,13.33
2018-04-22T06:38:53.238Z,12.27
2018-04-22T06:41:25.368Z,12.53
2018-04-22T06:43:53.623Z,13.00
2018-04-22T06:46:21.835Z,17.60
2018-04-22T06:48:50.004Z,12.10
2018-04-22T06:51:18.185Z,12.47
2018-04-22T06:53:47.059Z,12.20
2018-04-22T06:56:15.181Z,11.20
2018-04-22T06:58:43.384Z,11.43
2018-04-22T07:01:11.536Z,15.57
2018-04-22T07:03:39.661Z,12.77
2018-04-22T07:06:07.793Z,11.07
2018-04-22T07:08:39.525Z,11.00
2018-04-22T07:11:08.349Z,12.20
2018-04-22T07:13:36.391Z,10.67
2018-04-22T07:16:05.212Z,9.97
2018-04-22T07:18:33.248Z,10.33
2018-04-22T07:21:02.081Z,15.47
2018-04-22T07:23:30.122Z,9.63
2018-04-22T07:25:58.212Z,13.87
2018-04-22T07:28:26.257Z,11.03
2018-04-22T07:30:54.311Z,9.97
2018-04-22T07:33:22.356Z,11.20
2018-04-22T07:35:50.442Z,11.03
2018-04-22T07:38:18.506Z,14.57
2018-04-22T07:40:46.566Z,9.10
2018-04-22T07:43:14.705Z,8.53
2018-04-22T07:45:43.394Z,12.70
2018-04-22T07:48:11.469Z,12.07
2018-04-22T07:50:39.519Z,8.97
2018-04-22T07:53:07.569Z,11.00
2018-04-22T07:55:36.393Z,9.33
2018-04-22T07:58:04.468Z,7.90
2018-04-22T08:00:32.515Z,10.30
2018-04-22T08:03:01.341Z,10.43
2018-04-22T08:05:30.141Z,7.83
2018-04-22T08:07:58.208Z,12.27
2018-04-22T08:10:26.261Z,11.57
2018-04-22T08:12:54.325Z,10.93
2018-04-22T08:15:22.372Z,14.67
2018-04-22T08:17:50.425Z,10.40
2018-04-22T08:20:18.470Z,12.50
2018-04-22T08:22:46.516Z,13.60
2018-04-22T08:25:21.009Z,12.90
2018-04-22T08:27:49.826Z,10.67
2018-04-22T08:30:17.876Z,10.57
2018-04-22T08:32:45.948Z,7.33
2018-04-22T08:35:14.760Z,12.53
2018-04-22T08:37:42.808Z,13.17
2018-04-22T08:40:10.858Z,7.37
2018-04-22T08:42:39.676Z,7.17
2018-04-22T08:45:07.721Z,9.93
2018-04-22T08:47:36.540Z,8.70
2018-04-22T08:50:04.600Z,6.03
2018-04-22T08:52:32.652Z,13.73
2018-04-22T08:55:00.696Z,7.03
2018-04-22T08:57:28.747Z,7.17
2018-04-22T08:59:56.800Z,6.77
2018-04-22T09:02:24.863Z,7.23
2018-04-22T09:04:54.019Z,8.50
2018-04-22T09:07:23.264Z,6.97
2018-04-22T09:09:53.163Z,10.63
2018-04-22T09:12:21.208Z,10.33
2018-04-22T09:14:53.581Z,8.23
2018-04-22T09:17:22.404Z,6.67
2018-04-22T09:19:50.456Z,7.97
2018-04-22T09:22:18.504Z,8.43
2018-04-22T09:24:46.570Z,7.07
2018-04-22T09:27:14.620Z,7.07
2018-04-22T09:29:42.772Z,7.57
2018-04-22T09:32:10.828Z,15.73
2018-04-22T09:34:39.208Z,12.30
2018-04-22T09:37:08.396Z,6.73
2018-04-22T09:39:42.942Z,7.13
2018-04-22T09:42:10.990Z,10.03
2018-04-22T09:44:39.050Z,7.80
2018-04-22T09:47:07.856Z,13.27
2018-04-22T09:49:35.916Z,18.48
2018-04-22T09:52:12.699Z,6.62
2018-04-22T09:54:41.697Z,11.00
2018-04-22T09:57:12.223Z,5.65
2018-04-22T09:59:40.354Z,8.32
2018-04-22T10:02:14.110Z,8.80
2018-04-22T10:04:49.830Z,4.40
2018-04-22T10:07:23.337Z,6.72
2018-04-22T10:09:51.408Z,11.85
2018-04-22T10:12:19.472Z,4.18
2018-04-22T10:14:51.185Z,5.65
2018-04-22T10:17:19.249Z,10.23
2018-04-22T10:19:47.288Z,6.90
2018-04-22T10:22:15.378Z,4.45
2018-04-22T10:24:43.406Z,5.62
2018-04-22T10:27:12.229Z,8.57
2018-04-22T10:29:41.220Z,9.15
2018-04-22T10:32:09.272Z,7.22
2018-04-22T10:34:37.342Z,7.18
2018-04-22T10:37:05.401Z,7.45
2018-04-22T10:39:34.217Z,4.53
2018-04-22T10:42:02.342Z,8.03
2018-04-22T10:44:31.398Z,7.27
2018-04-22T10:46:59.461Z,4.40
2018-04-22T10:49:27.561Z,6.60
2018-04-22T10:51:55.612Z,6.60
2018-04-22T10:54:23.667Z,7.03
2018-04-22T10:56:51.716Z,5.13
2018-04-22T10:59:20.527Z,4.50
2018-04-22T11:01:48.577Z,7.57
2018-04-22T11:04:16.643Z,5.77
2018-04-22T11:06:47.941Z,5.93
2018-04-22T11:09:16.003Z,13.93
2018-04-22T11:11:45.562Z,9.30
2018-04-22T11:14:14.014Z,5.23
2018-04-22T11:16:42.063Z,5.73
2018-04-22T11:19:12.660Z,5.10
2018-04-22T11:21:41.261Z,21.47
2018-04-22T11:24:09.323Z,5.50
2018-04-22T11:26:37.351Z,3.67
2018-04-22T11:29:05.412Z,7.10
2018-04-22T11:31:38.318Z,5.07
2018-04-22T11:34:06.375Z,7.30
2018-04-22T11:36:34.423Z,6.23
2018-04-22T11:39:06.124Z,4.23
2018-04-22T11:41:34.934Z,4.93
2018-04-22T11:44:02.978Z,3.57
2018-04-22T11:46:31.038Z,4.60
2018-04-22T11:48:59.132Z,4.23
2018-04-22T11:51:27.957Z,5.83
2018-04-22T11:53:56.072Z,4.47
2018-04-22T11:56:24.641Z,4.17
2018-04-22T11:58:52.692Z,5.70
2018-04-22T12:01:27.249Z,3.87
2018-04-22T12:03:55.355Z,5.57
2018-04-22T12:06:23.457Z,4.57
2018-04-22T12:08:51.487Z,5.13
2018-04-22T12:11:20.289Z,10.97
2018-04-22T12:13:48.348Z,4.90
2018-04-22T12:16:19.022Z,7.83
2018-04-22T12:18:47.438Z,7.57
2018-04-22T12:21:16.261Z,5.40
2018-04-22T12:23:45.003Z,6.03
2018-04-22T12:26:19.313Z,6.15
2018-04-22T12:28:47.381Z,7.78
2018-04-22T12:31:15.469Z,7.80
2018-04-22T12:33:43.522Z,6.53
2018-04-22T12:36:12.300Z,3.67
2018-04-22T12:38:40.365Z,6.80
2018-04-22T12:41:09.198Z,8.55
2018-04-22T12:43:37.280Z,7.65
2018-04-22T12:46:08.422Z,3.80
2018-04-22T12:48:37.257Z,14.20
2018-04-22T12:51:05.301Z,5.15
2018-04-22T12:53:33.363Z,3.45
2018-04-22T12:56:08.607Z,5.95
2018-04-22T12:58:36.730Z,5.23
2018-04-22T13:01:04.755Z,5.47
2018-04-22T13:03:32.817Z,4.70
2018-04-22T13:06:00.903Z,3.30
2018-04-22T13:08:29.688Z,5.75
2018-04-22T13:10:57.737Z,4.87
2018-04-22T13:13:25.793Z,6.27
2018-04-22T13:15:54.615Z,4.03
2018-04-22T13:18:23.457Z,4.97
2018-04-22T13:20:51.501Z,5.60
2018-04-22T13:23:19.552Z,5.33
2018-04-22T13:25:47.652Z,3.57
2018-04-22T13:28:15.673Z,6.73
2018-04-22T13:30:43.741Z,5.23
2018-04-22T13:33:12.553Z,5.13
2018-04-22T13:35:41.364Z,5.83
2018-04-22T13:38:09.412Z,8.27
2018-04-22T13:40:38.481Z,6.03
2018-04-22T13:43:07.297Z,8.00
2018-04-22T13:45:35.364Z,6.70
2018-04-22T13:48:03.402Z,5.23
2018-04-22T13:50:32.231Z,4.93
2018-04-22T13:53:00.275Z,3.27
2018-04-22T13:55:32.233Z,3.13
2018-04-22T13:58:01.049Z,4.10
2018-04-22T14:00:29.113Z,7.17
2018-04-22T14:02:57.157Z,4.50
2018-04-22T14:05:25.977Z,4.57
2018-04-22T14:07:54.023Z,2.70
2018-04-22T14:10:27.085Z,2.80
2018-04-22T14:12:55.121Z,3.80
2018-04-22T14:15:23.183Z,4.20
2018-04-22T14:17:51.225Z,2.47
2018-04-22T14:20:19.281Z,2.80
2018-04-22T14:22:48.086Z,3.67
2018-04-22T14:25:16.180Z,6.23
2018-04-22T14:27:44.177Z,2.77
2018-04-22T14:30:12.225Z,5.03
2018-04-22T14:32:40.276Z,3.70
2018-04-22T14:35:08.330Z,5.00
2018-04-22T14:37:36.394Z,4.30
2018-04-22T14:40:05.213Z,4.47
2018-04-22T14:42:33.263Z,2.77
2018-04-22T14:45:13.917Z,3.33
2018-04-22T14:47:42.734Z,3.77
2018-04-22T14:50:11.645Z,4.80
2018-04-22T14:52:40.470Z,4.13
2018-04-22T14:55:08.524Z,16.93
2018-04-22T14:57:36.573Z,6.43
2018-04-22T15:00:04.627Z,6.13
2018-04-22T15:02:32.690Z,9.10
2018-04-22T15:05:00.738Z,4.50
2018-04-22T15:07:29.544Z,6.27
2018-04-22T15:09:57.598Z,3.50
2018-04-22T15:12:25.657Z,5.27
2018-04-22T15:15:01.376Z,5.33
2018-04-22T15:17:29.427Z,3.73
2018-04-22T15:19:57.474Z,3.20
2018-04-22T15:22:26.289Z,2.80
2018-04-22T15:24:54.339Z,4.93
2018-04-22T15:27:22.398Z,3.00
2018-04-22T15:29:51.209Z,6.50
2018-04-22T15:32:19.275Z,3.37
2018-04-22T15:34:47.317Z,5.27
2018-04-22T15:37:16.146Z,5.13
2018-04-22T15:39:44.932Z,4.23
2018-04-22T15:42:12.992Z,5.10
2018-04-22T15:44:41.043Z,2.97
2018-04-22T15:47:10.304Z,3.50
2018-04-22T15:49:38.797Z,6.77
2018-04-22T15:52:06.852Z,3.40
2018-04-22T15:54:34.889Z,4.47
2018-04-22T15:57:02.945Z,4.53
2018-04-22T15:59:31.768Z,5.60
2018-04-22T16:02:00.589Z,6.07
2018-04-22T16:04:28.642Z,4.13
2018-04-22T16:06:56.689Z,3.20
2018-04-22T16:09:24.730Z,7.17
2018-04-22T16:11:57.044Z,3.40
2018-04-22T16:14:25.192Z,5.70
2018-04-22T16:16:59.540Z,2.93
2018-04-22T16:19:27.597Z,3.07
2018-04-22T16:21:55.647Z,3.73
2018-04-22T16:24:23.685Z,5.47
2018-04-22T16:26:51.749Z,8.73
2018-04-22T16:29:19.793Z,5.37
2018-04-22T16:31:47.833Z,3.47
2018-04-22T16:34:15.889Z,3.73
2018-04-22T16:36:44.697Z,4.60
2018-04-22T16:39:14.769Z,3.00
2018-04-22T16:41:42.813Z,3.00
2018-04-22T16:44:11.836Z,4.03
2018-04-22T16:46:39.882Z,6.60
2018-04-22T16:49:07.928Z,7.93
2018-04-22T16:51:35.977Z,5.83
2018-04-22T16:54:04.031Z,4.60
2018-04-22T16:56:32.081Z,2.80
2018-04-22T16:59:00.120Z,3.40
2018-04-22T17:01:28.162Z,4.33
2018-04-22T17:03:56.200Z,3.50
2018-04-22T17:06:24.968Z,5.27
2018-04-22T17:08:53.032Z,3.87
2018-04-22T17:11:21.139Z,6.17
2018-04-22T17:13:50.017Z,5.00
2018-04-22T17:16:18.773Z,4.07
2018-04-22T17:18:46.829Z,4.60
2018-04-22T17:21:14.861Z,4.47
2018-04-22T17:23:43.695Z,5.97
2018-04-22T17:26:11.791Z,6.37
2018-04-22T17:28:39.841Z,11.00
2018-04-22T17:31:07.897Z,5.77
2018-04-22T17:33:35.952Z,5.50
2018-04-22T17:36:04.456Z,9.63
2018-04-22T17:38:36.902Z,5.03
2018-04-22T17:41:05.725Z,3.50
2018-04-22T17:43:34.224Z,3.53
2018-04-22T17:46:02.276Z,3.27
2018-04-22T17:48:30.315Z,5.07
2018-04-22T17:50:58.452Z,4.67
2018-04-22T17:53:26.492Z,6.00
2018-04-22T17:55:54.540Z,5.53
2018-04-22T17:58:22.586Z,4.67
2018-04-22T18:00:52.070Z,6.53
2018-04-22T18:03:20.116Z,5.90
2018-04-22T18:05:48.175Z,6.93
2018-04-22T18:08:16.213Z,5.80
2018-04-22T18:10:44.279Z,3.77
2018-04-22T18:13:13.090Z,7.97
2018-04-22T18:15:41.141Z,7.03
2018-04-22T18:18:09.954Z,3.37
2018-04-22T18:20:38.018Z,5.10
2018-04-22T18:23:06.065Z,3.53
2018-04-22T18:25:34.893Z,4.60
2018-04-22T18:28:02.937Z,4.87
2018-04-22T18:30:30.981Z,3.60
2018-04-22T18:32:59.052Z,5.80
2018-04-22T18:35:27.080Z,4.77
2018-04-22T18:37:55.140Z,5.73
2018-04-22T18:40:23.180Z,6.23
2018-04-22T18:42:52.007Z,4.20
2018-04-22T18:45:20.065Z,5.93
2018-04-22T18:47:48.117Z,5.40
2018-04-22T18:50:16.212Z,4.80
2018-04-22T18:52:44.257Z,6.03
2018-04-22T18:55:13.081Z,6.30
2018-04-22T18:57:41.136Z,4.73
2018-04-22T19:00:09.178Z,6.07
2018-04-22T19:02:38.013Z,6.17
2018-04-22T19:05:06.062Z,5.07
2018-04-22T19:07:34.113Z,4.90
2018-04-22T19:10:03.438Z,5.40
2018-04-22T19:12:31.496Z,7.20
2018-04-22T19:14:59.554Z,6.27
2018-04-22T19:17:28.385Z,5.80
2018-04-22T19:19:56.409Z,6.93
2018-04-22T19:22:25.231Z,7.77
2018-04-22T19:24:53.277Z,5.83
2018-04-22T19:27:22.084Z,5.37
2018-04-22T19:29:50.278Z,3.97
2018-04-22T19:32:18.301Z,4.47
2018-04-22T19:34:47.126Z,8.60
2018-04-22T19:37:15.153Z,4.10
2018-04-22T19:39:43.972Z,6.27
2018-04-22T19:42:12.025Z,9.20
2018-04-22T19:44:40.847Z,7.03
2018-04-22T19:47:08.898Z,7.17
2018-04-22T19:49:36.950Z,5.53
2018-04-22T19:52:05.772Z,6.47
2018-04-22T19:54:33.833Z,7.57
2018-04-22T19:57:01.885Z,5.23
2018-04-22T19:59:30.692Z,4.13
2018-04-22T20:01:58.745Z,3.80
2018-04-22T20:04:26.792Z,6.57
2018-04-22T20:06:54.848Z,7.53
2018-04-22T20:09:22.901Z,6.33
2018-04-22T20:11:50.962Z,3.50
2018-04-22T20:14:19.026Z,6.17
2018-04-22T20:16:47.625Z,6.73
2018-04-22T20:19:15.731Z,6.77
2018-04-22T20:21:43.772Z,5.70
2018-04-22T20:24:11.856Z,4.60
2018-04-22T20:26:39.936Z,5.13
2018-04-22T20:29:08.016Z,5.03
2018-04-22T20:31:36.273Z,5.53
2018-04-22T20:34:04.390Z,5.30
2018-04-22T20:36:33.240Z,5.30
2018-04-22T20:39:01.287Z,6.27
2018-04-22T20:41:29.331Z,10.07
2018-04-22T20:43:57.393Z,6.50
2018-04-22T20:46:25.472Z,5.90
2018-04-22T20:48:53.556Z,8.43
2018-04-22T20:51:21.633Z,5.23
2018-04-22T20:53:49.697Z,7.43
2018-04-22T20:56:17.746Z,4.27
2018-04-22T20:58:46.566Z,5.67
2018-04-22T21:01:14.622Z,5.50
2018-04-22T21:03:42.676Z,6.57
2018-04-22T21:09:05.476Z,6.60
2018-04-22T21:11:33.521Z,5.57
2018-04-22T21:14:01.580Z,5.70
2018-04-22T21:16:30.396Z,4.70
2018-04-22T21:18:58.459Z,4.03
2018-04-22T21:21:27.257Z,4.13
2018-04-22T21:23:55.321Z,5.50
2018-04-22T21:26:23.362Z,6.20
2018-04-22T21:28:52.196Z,4.00
2018-04-22T21:31:21.056Z,4.40
2018-04-22T21:33:49.122Z,4.50
2018-04-22T21:36:17.928Z,4.17
2018-04-22T21:38:45.986Z,4.57
2018-04-22T21:41:14.030Z,5.50
2018-04-22T21:43:42.088Z,4.23
2018-04-22T21:46:10.135Z,7.07
2018-04-22T21:48:38.201Z,7.33
2018-04-22T21:51:06.297Z,6.50
2018-04-22T21:53:34.336Z,5.30
2018-04-22T21:56:02.459Z,4.47
2018-04-22T21:58:30.436Z,4.13
2018-04-22T22:00:59.264Z,5.57
2018-04-22T22:03:27.304Z,3.60
2018-04-22T22:05:56.121Z,5.90
2018-04-22T22:08:24.166Z,5.37
2018-04-22T22:10:52.208Z,7.17
2018-04-22T22:13:20.256Z,6.43
2018-04-22T22:15:48.312Z,4.63
2018-04-22T22:18:16.370Z,6.07
2018-04-22T22:20:44.405Z,6.63
2018-04-22T22:23:13.227Z,5.23
2018-04-22T22:25:41.302Z,7.27
2018-04-22T22:28:09.344Z,4.00
2018-04-22T22:30:38.169Z,4.87
2018-04-22T22:33:06.209Z,4.77
2018-04-22T22:35:35.023Z,3.57
2018-04-22T22:38:03.051Z,5.73
2018-04-22T22:40:32.101Z,5.70
2018-04-22T22:43:00.150Z,3.90
2018-04-22T22:45:28.197Z,3.80
2018-04-22T22:47:57.006Z,5.97
2018-04-22T22:50:25.061Z,8.00
2018-04-22T22:52:53.874Z,4.03
2018-04-22T22:55:21.916Z,6.77
2018-04-22T22:57:50.728Z,3.53
2018-04-22T23:00:21.366Z,4.13
2018-04-22T23:02:49.421Z,4.93
2018-04-22T23:05:17.467Z,6.57
2018-04-22T23:07:46.275Z,3.73
2018-04-22T23:10:14.325Z,4.50
2018-04-22T23:12:43.133Z,3.40
2018-04-22T23:15:11.172Z,3.30
2018-04-22T23:17:39.235Z,3.20
2018-04-22T23:20:07.281Z,4.80
2018-04-22T23:22:35.341Z,6.77
2018-04-22T23:25:03.402Z,6.47
2018-04-22T23:27:31.428Z,4.03
2018-04-22T23:29:59.477Z,3.43
2018-04-22T23:32:27.564Z,3.77
2018-04-22T23:34:55.559Z,4.30
2018-04-22T23:37:24.370Z,3.30
2018-04-22T23:39:52.404Z,5.30
2018-04-22T23:42:21.224Z,4.43
2018-04-22T23:44:49.256Z,3.33
2018-04-22T23:47:17.304Z,4.43
2018-04-22T23:49:45.337Z,4.17
2018-04-22T23:52:13.380Z,3.87
2018-04-22T23:54:42.185Z,4.63
2018-04-22T23:57:10.237Z,4.97
2018-04-22T23:59:39.038Z,3.83
